createdAt,value
2023-04-20T00:02:19.731Z,3.70
2023-04-20T00:04:47.140Z,6.70
2023-04-20T00:07:13.878Z,3.57
2023-04-20T00:09:40.768Z,4.00
2023-04-20T00:12:07.669Z,3.90
2023-04-20T00:14:34.463Z,3.10
2023-04-20T00:17:01.217Z,3.53
2023-04-20T00:19:28.428Z,3.40
2023-04-20T00:21:55.127Z,5.93
2023-04-20T00:24:21.915Z,4.10
2023-04-20T00:26:48.658Z,5.83
2023-04-20T00:29:15.498Z,3.90
2023-04-20T00:31:42.601Z,6.50
2023-04-20T00:34:09.244Z,3.10
2023-04-20T00:36:36.340Z,3.30
2023-04-20T00:39:03.469Z,4.07
2023-04-20T00:41:30.238Z,4.57
2023-04-20T00:43:56.998Z,5.97
2023-04-20T00:46:23.814Z,5.60
2023-04-20T00:48:54.154Z,4.97
2023-04-20T00:51:24.347Z,5.17
2023-04-20T00:53:51.150Z,3.30
2023-04-20T00:56:19.283Z,3.10
2023-04-20T00:58:46.701Z,5.13
2023-04-20T01:01:17.656Z,5.17
2023-04-20T01:03:45.822Z,4.10
2023-04-20T01:06:15.750Z,7.13
2023-04-20T01:08:47.574Z,4.53
2023-04-20T01:11:14.670Z,3.13
2023-04-20T01:13:41.421Z,4.07
2023-04-20T01:16:08.136Z,5.77
2023-04-20T01:18:51.122Z,3.63
2023-04-20T01:21:21.345Z,10.20
2023-04-20T01:23:48.579Z,5.50
2023-04-20T01:26:17.835Z,9.27
2023-04-20T01:28:45.537Z,4.37
2023-04-20T01:31:13.244Z,7.50
2023-04-20T01:33:40.904Z,6.60
2023-04-20T01:36:08.854Z,10.90
2023-04-20T01:38:36.596Z,3.70
2023-04-20T01:41:05.845Z,4.90
2023-04-20T01:43:33.781Z,6.07
2023-04-20T01:46:01.105Z,5.43
2023-04-20T01:48:28.169Z,3.37
2023-04-20T01:50:55.235Z,3.23
2023-04-20T01:53:22.116Z,4.93
2023-04-20T01:55:51.181Z,2.90
2023-04-20T01:58:17.893Z,3.47
2023-04-20T02:00:44.789Z,4.23
2023-04-20T02:03:11.872Z,6.27
2023-04-20T02:05:38.697Z,4.20
2023-04-20T02:08:05.753Z,3.73
2023-04-20T02:10:32.603Z,3.87
2023-04-20T02:12:59.363Z,7.90
2023-04-20T02:15:26.344Z,6.40
2023-04-20T02:17:53.195Z,7.03
2023-04-20T02:20:20.597Z,5.13
2023-04-20T02:22:47.459Z,4.80
2023-04-20T02:25:15.009Z,4.97
2023-04-20T02:27:42.523Z,4.93
2023-04-20T02:30:10.442Z,5.67
2023-04-20T02:32:37.281Z,7.20
2023-04-20T02:35:04.573Z,7.33
2023-04-20T02:37:31.639Z,4.30
2023-04-20T02:39:58.584Z,8.07
2023-04-20T02:42:25.264Z,5.83
2023-04-20T02:44:53.005Z,5.70
2023-04-20T02:47:19.873Z,6.37
2023-04-20T02:49:47.566Z,4.30
2023-04-20T02:52:14.689Z,3.17
2023-04-20T02:54:41.443Z,7.37
2023-04-20T02:57:08.154Z,4.20
2023-04-20T02:59:35.142Z,5.80
2023-04-20T03:02:01.956Z,3.30
2023-04-20T03:04:28.816Z,3.83
2023-04-20T03:06:55.820Z,4.77
2023-04-20T03:09:22.914Z,5.63
2023-04-20T03:11:50.993Z,4.50
2023-04-20T03:14:17.723Z,5.73
2023-04-20T03:16:45.353Z,4.10
2023-04-20T03:19:12.149Z,4.10
2023-04-20T03:21:38.810Z,4.20
2023-04-20T03:24:07.068Z,4.93
2023-04-20T03:26:33.818Z,5.10
2023-04-20T03:29:01.049Z,4.43
2023-04-20T03:31:27.884Z,8.97
2023-04-20T03:33:54.717Z,4.20
2023-04-20T03:36:21.724Z,5.00
2023-04-20T03:38:48.466Z,6.07
2023-04-20T03:41:15.229Z,8.00
2023-04-20T03:43:41.957Z,7.40
2023-04-20T03:46:08.904Z,4.67
2023-04-20T03:48:35.936Z,5.03
2023-04-20T03:51:02.666Z,4.67
2023-04-20T03:53:29.433Z,8.23
2023-04-20T03:55:56.581Z,9.40
2023-04-20T03:58:23.516Z,8.50
2023-04-20T04:00:50.450Z,4.23
2023-04-20T04:03:17.459Z,11.37
2023-04-20T04:05:44.352Z,6.40
2023-04-20T04:08:11.780Z,4.80
2023-04-20T04:10:38.538Z,7.73
2023-04-20T04:13:05.415Z,4.80
2023-04-20T04:15:32.167Z,4.50
2023-04-20T04:17:59.053Z,5.63
2023-04-20T04:20:25.845Z,5.83
2023-04-20T04:22:52.582Z,5.30
2023-04-20T04:25:20.535Z,6.43
2023-04-20T04:27:47.894Z,4.93
2023-04-20T04:30:14.773Z,8.70
2023-04-20T04:32:42.450Z,5.97
2023-04-20T04:35:10.162Z,4.53
2023-04-20T04:37:37.113Z,5.20
2023-04-20T04:40:07.311Z,6.63
2023-04-20T04:42:34.947Z,5.20
2023-04-20T04:45:03.470Z,5.17
2023-04-20T04:47:33.890Z,5.57
2023-04-20T04:50:01.915Z,6.43
2023-04-20T04:52:28.673Z,5.30
2023-04-20T04:54:55.344Z,9.80
2023-04-20T04:57:22.026Z,4.70
2023-04-20T04:59:48.836Z,4.27
2023-04-20T05:02:15.599Z,6.83
2023-04-20T05:04:42.658Z,4.43
2023-04-20T05:07:14.056Z,4.57
2023-04-20T05:09:41.721Z,4.07
2023-04-20T05:12:08.593Z,8.87
2023-04-20T05:14:35.583Z,4.57
2023-04-20T05:17:02.625Z,18.57
2023-04-20T05:19:29.594Z,4.53
2023-04-20T05:21:56.484Z,4.63
2023-04-20T05:24:23.217Z,6.03
2023-04-20T05:26:49.942Z,4.93
2023-04-20T05:29:17.041Z,5.40
2023-04-20T05:31:44.998Z,4.10
2023-04-20T05:34:11.945Z,4.60
2023-04-20T05:36:39.902Z,6.10
2023-04-20T05:39:06.785Z,4.23
2023-04-20T05:41:33.536Z,5.13
2023-04-20T05:44:00.795Z,5.00
2023-04-20T05:46:29.269Z,4.10
2023-04-20T05:48:56.124Z,5.20
2023-04-20T05:51:23.305Z,4.63
2023-04-20T05:53:50.265Z,4.00
2023-04-20T05:56:18.499Z,4.37
2023-04-20T05:58:45.872Z,5.13
2023-04-20T06:01:12.616Z,4.60
2023-04-20T06:03:39.612Z,4.70
2023-04-20T06:06:07.039Z,5.73
2023-04-20T06:08:34.084Z,4.50
2023-04-20T06:11:00.949Z,4.80
2023-04-20T06:13:27.993Z,4.67
2023-04-20T06:15:55.000Z,7.40
2023-04-20T06:18:21.892Z,4.97
2023-04-20T06:20:48.665Z,5.33
2023-04-20T06:23:15.787Z,5.07
2023-04-20T06:25:42.839Z,5.03
2023-04-20T06:28:09.713Z,6.73
2023-04-20T06:30:36.641Z,5.07
2023-04-20T06:33:04.171Z,4.67
2023-04-20T06:35:31.128Z,5.63
2023-04-20T06:38:00.894Z,4.67
2023-04-20T06:40:28.697Z,5.67
2023-04-20T06:42:55.488Z,5.00
2023-04-20T06:45:22.622Z,5.50
2023-04-20T06:47:49.387Z,4.60
2023-04-20T06:50:16.248Z,5.80
2023-04-20T06:52:44.285Z,10.97
2023-04-20T06:55:11.712Z,5.50
2023-04-20T06:57:39.488Z,5.00
2023-04-20T07:00:09.248Z,5.80
2023-04-20T07:02:51.179Z,4.67
2023-04-20T07:05:27.152Z,4.53
2023-04-20T07:07:56.730Z,5.13
2023-04-20T07:10:23.573Z,4.93
2023-04-20T07:12:50.515Z,5.20
2023-04-20T07:15:17.366Z,5.33
2023-04-20T07:17:44.137Z,5.30
2023-04-20T07:20:11.244Z,4.90
2023-04-20T07:22:38.957Z,4.50
2023-04-20T07:25:08.474Z,4.80
2023-04-20T07:27:37.334Z,5.27
2023-04-20T07:30:06.369Z,5.20
2023-04-20T07:32:36.597Z,6.27
2023-04-20T07:35:04.063Z,7.17
2023-04-20T07:37:32.885Z,5.83
2023-04-20T07:39:59.760Z,7.77
2023-04-20T07:42:26.682Z,5.87
2023-04-20T07:44:54.088Z,5.60
2023-04-20T07:47:21.224Z,6.37
2023-04-20T07:49:48.014Z,5.20
2023-04-20T07:52:17.275Z,5.97
2023-04-20T07:54:47.460Z,7.63
2023-04-20T07:57:14.346Z,7.37
2023-04-20T07:59:41.416Z,6.10
2023-04-20T08:02:08.868Z,6.77
2023-04-20T08:04:39.325Z,9.23
2023-04-20T08:07:06.453Z,7.30
2023-04-20T08:09:33.243Z,7.30
2023-04-20T08:12:00.601Z,6.70
2023-04-20T08:14:27.682Z,7.23
2023-04-20T08:16:54.526Z,6.50
2023-04-20T08:19:21.613Z,7.57
2023-04-20T08:21:48.484Z,5.80
2023-04-20T08:24:15.615Z,8.37
2023-04-20T08:26:43.586Z,5.87
2023-04-20T08:29:10.796Z,9.07
2023-04-20T08:31:37.816Z,9.10
2023-04-20T08:34:04.744Z,5.97
2023-04-20T08:36:32.258Z,5.23
2023-04-20T08:39:11.557Z,7.20
2023-04-20T08:41:38.430Z,5.53
2023-04-20T08:44:05.904Z,5.73
2023-04-20T08:46:34.054Z,6.00
2023-04-20T08:49:02.860Z,8.33
2023-04-20T08:51:31.125Z,5.07
2023-04-20T08:54:05.485Z,4.83
2023-04-20T08:56:37.105Z,5.80
2023-04-20T08:59:05.475Z,4.60
2023-04-20T09:01:35.489Z,6.23
2023-04-20T09:04:03.747Z,5.63
2023-04-20T09:06:31.625Z,4.27
2023-04-20T09:08:58.366Z,3.90
2023-04-20T09:11:26.648Z,5.63
2023-04-20T09:14:02.483Z,5.30
2023-04-20T09:16:30.068Z,5.10
2023-04-20T09:18:57.238Z,9.13
2023-04-20T09:21:26.097Z,5.20
2023-04-20T09:24:09.279Z,4.43
2023-04-20T09:26:36.654Z,4.90
2023-04-20T09:29:04.614Z,5.07
2023-04-20T09:31:31.429Z,4.90
2023-04-20T09:34:04.364Z,5.00
2023-04-20T09:36:44.809Z,7.23
2023-04-20T09:39:17.317Z,9.70
2023-04-20T09:41:44.362Z,4.83
2023-04-20T09:44:12.241Z,4.20
2023-04-20T09:46:41.261Z,4.43
2023-04-20T09:49:10.057Z,4.07
2023-04-20T09:51:39.117Z,3.90
2023-04-20T09:54:06.682Z,4.03
2023-04-20T09:56:34.639Z,4.10
2023-04-20T09:59:03.238Z,3.73
2023-04-20T10:01:33.600Z,4.30
2023-04-20T10:04:01.693Z,3.40
2023-04-20T10:06:30.943Z,4.77
2023-04-20T10:08:58.510Z,4.90
2023-04-20T10:11:40.599Z,5.27
2023-04-20T10:14:18.734Z,4.77
2023-04-20T10:16:46.816Z,4.63
2023-04-20T10:19:13.740Z,5.07
2023-04-20T10:21:48.740Z,4.83
2023-04-20T10:24:17.707Z,4.73
2023-04-20T10:26:47.179Z,4.30
2023-04-20T10:29:27.031Z,4.00
2023-04-20T10:31:55.107Z,4.77
2023-04-20T10:34:31.541Z,4.80
2023-04-20T10:37:11.413Z,6.10
2023-04-20T10:39:46.005Z,4.87
2023-04-20T10:42:14.181Z,4.43
2023-04-20T10:44:51.819Z,5.07
2023-04-20T10:47:32.419Z,4.27
2023-04-20T10:50:10.852Z,6.17
2023-04-20T10:52:40.166Z,5.40
2023-04-20T10:55:18.600Z,4.63
2023-04-20T10:57:45.792Z,4.87
2023-04-20T11:00:16.714Z,4.33
2023-04-20T11:02:53.564Z,3.20
2023-04-20T11:05:23.938Z,3.80
2023-04-20T11:07:54.245Z,4.23
2023-04-20T11:10:38.053Z,3.83
2023-04-20T11:13:04.839Z,3.30
2023-04-20T11:15:35.561Z,3.23
2023-04-20T11:18:10.032Z,2.10
2023-04-20T11:20:37.165Z,2.40
2023-04-20T11:23:06.107Z,2.43
2023-04-20T11:25:33.911Z,1.93
2023-04-20T11:28:08.991Z,2.90
2023-04-20T11:30:42.564Z,2.43
2023-04-20T11:33:10.458Z,2.47
2023-04-20T11:35:41.867Z,2.97
2023-04-20T11:38:09.002Z,1.90
2023-04-20T11:40:36.419Z,2.90
2023-04-20T11:43:04.552Z,2.50
2023-04-20T11:45:36.282Z,2.63
2023-04-20T11:48:04.594Z,2.80
2023-04-20T11:50:31.524Z,3.20
2023-04-20T11:52:58.463Z,2.70
2023-04-20T11:55:25.199Z,2.80
2023-04-20T11:57:51.941Z,4.03
2023-04-20T12:00:19.575Z,3.97
2023-04-20T12:02:46.593Z,3.97
2023-04-20T12:05:14.256Z,3.80
2023-04-20T12:07:41.280Z,3.43
2023-04-20T12:10:08.849Z,5.00
2023-04-20T12:12:35.791Z,4.17
2023-04-20T12:15:02.504Z,3.50
2023-04-20T12:17:29.282Z,5.10
2023-04-20T12:19:57.900Z,4.70
2023-04-20T12:22:24.660Z,4.43
2023-04-20T12:24:51.394Z,5.03
2023-04-20T12:27:18.272Z,5.40
2023-04-20T12:29:45.004Z,5.93
2023-04-20T12:32:11.928Z,7.33
2023-04-20T12:34:38.695Z,5.13
2023-04-20T12:37:05.382Z,4.47
2023-04-20T12:39:32.085Z,4.30
2023-04-20T12:41:58.784Z,4.20
2023-04-20T12:44:25.491Z,4.30
2023-04-20T12:46:52.187Z,4.90
2023-04-20T12:49:19.279Z,4.10
2023-04-20T12:51:46.270Z,3.80
2023-04-20T12:54:13.023Z,4.50
2023-04-20T12:56:39.856Z,4.63
2023-04-20T12:59:06.577Z,4.47
2023-04-20T13:01:33.639Z,5.87
2023-04-20T13:04:00.558Z,6.00
2023-04-20T13:06:27.999Z,5.00
2023-04-20T13:08:54.753Z,7.33
2023-04-20T13:11:22.054Z,5.77
2023-04-20T13:13:48.817Z,6.80
2023-04-20T13:16:15.768Z,6.53
2023-04-20T13:18:42.449Z,7.50
2023-04-20T13:21:09.365Z,7.90
2023-04-20T13:23:38.033Z,5.50
2023-04-20T13:26:06.324Z,4.67
2023-04-20T13:28:33.145Z,5.80
2023-04-20T13:30:59.971Z,5.53
2023-04-20T13:33:26.836Z,5.93
2023-04-20T13:35:53.537Z,6.40
2023-04-20T13:38:20.480Z,6.97
2023-04-20T13:40:48.202Z,6.47
2023-04-20T13:43:14.900Z,6.00
2023-04-20T13:45:41.726Z,8.00
2023-04-20T13:48:08.816Z,6.37
2023-04-20T13:50:35.790Z,6.70
2023-04-20T13:53:03.167Z,6.53
2023-04-20T13:55:30.809Z,6.57
2023-04-20T13:57:57.723Z,6.40
2023-04-20T14:00:26.009Z,7.60
2023-04-20T14:02:52.940Z,6.70
2023-04-20T14:05:19.829Z,6.10
2023-04-20T14:07:46.590Z,6.70
2023-04-20T14:10:13.400Z,6.10
2023-04-20T14:12:40.257Z,8.30
2023-04-20T14:15:07.464Z,9.07
2023-04-20T14:17:34.232Z,8.13
2023-04-20T14:20:01.021Z,8.50
2023-04-20T14:22:34.146Z,8.57
2023-04-20T14:25:00.916Z,8.40
2023-04-20T14:27:27.601Z,8.07
2023-04-20T14:29:54.373Z,10.30
2023-04-20T14:32:21.173Z,6.87
2023-04-20T14:34:48.030Z,6.53
2023-04-20T14:37:14.931Z,7.87
2023-04-20T14:39:41.673Z,7.50
2023-04-20T14:42:08.396Z,8.03
2023-04-20T14:44:35.341Z,8.00
2023-04-20T14:47:03.016Z,7.63
2023-04-20T14:49:30.029Z,7.63
2023-04-20T14:51:56.741Z,8.60
2023-04-20T14:54:24.574Z,6.87
2023-04-20T14:56:51.287Z,7.27
2023-04-20T14:59:18.054Z,6.53
2023-04-20T15:01:58.716Z,6.67
2023-04-20T15:04:26.403Z,6.53
2023-04-20T15:06:53.302Z,7.77
2023-04-20T15:09:20.006Z,6.90
2023-04-20T15:11:46.785Z,6.40
2023-04-20T15:14:13.444Z,7.30
2023-04-20T15:16:40.262Z,6.97
2023-04-20T15:19:07.058Z,6.33
2023-04-20T15:21:33.845Z,7.63
2023-04-20T15:24:00.554Z,6.57
2023-04-20T15:26:27.329Z,6.00
2023-04-20T15:28:54.130Z,8.67
2023-04-20T15:31:20.918Z,6.20
2023-04-20T15:33:50.764Z,6.53
2023-04-20T15:36:19.458Z,6.10
2023-04-20T15:38:46.712Z,6.33
2023-04-20T15:41:13.576Z,9.00
2023-04-20T15:43:40.353Z,6.20
2023-04-20T15:46:07.129Z,6.40
2023-04-20T15:48:33.897Z,5.20
2023-04-20T15:51:00.917Z,4.80
2023-04-20T15:53:27.683Z,5.00
2023-04-20T15:55:54.361Z,5.70
2023-04-20T15:58:21.435Z,4.80
2023-04-20T16:00:48.153Z,5.60
2023-04-20T16:03:15.132Z,5.10
2023-04-20T16:05:42.069Z,5.10
2023-04-20T16:08:09.184Z,4.77
2023-04-20T16:10:35.884Z,4.17
2023-04-20T16:13:03.795Z,4.93
2023-04-20T16:15:30.899Z,4.87
2023-04-20T16:17:59.920Z,4.60
2023-04-20T16:20:26.756Z,5.10
2023-04-20T16:22:53.535Z,5.03
2023-04-20T16:25:23.188Z,4.60
2023-04-20T16:27:51.472Z,5.60
2023-04-20T16:30:18.633Z,6.70
2023-04-20T16:32:46.006Z,4.77
2023-04-20T16:35:12.767Z,5.90
2023-04-20T16:37:39.602Z,7.40
2023-04-20T16:40:08.775Z,5.40
2023-04-20T16:42:35.886Z,4.50
2023-04-20T16:45:02.867Z,4.90
2023-04-20T16:47:29.673Z,4.73
2023-04-20T16:49:56.389Z,5.50
2023-04-20T16:52:23.183Z,5.57
2023-04-20T16:54:49.851Z,5.40
2023-04-20T16:57:16.583Z,5.67
2023-04-20T16:59:45.651Z,5.20
2023-04-20T17:02:12.969Z,4.93
2023-04-20T17:04:39.954Z,4.60
2023-04-20T17:07:06.767Z,4.87
2023-04-20T17:09:33.648Z,5.30
2023-04-20T17:12:01.367Z,5.03
2023-04-20T17:14:28.264Z,6.87
2023-04-20T17:16:56.567Z,5.27
2023-04-20T17:19:23.539Z,5.80
2023-04-20T17:21:50.380Z,6.13
2023-04-20T17:24:17.569Z,5.60
2023-04-20T17:26:46.261Z,6.20
2023-04-20T17:29:13.636Z,6.47
2023-04-20T17:31:40.474Z,5.90
2023-04-20T17:34:07.404Z,8.77
2023-04-20T17:36:34.330Z,6.00
2023-04-20T17:39:01.241Z,6.40
2023-04-20T17:41:28.379Z,8.40
2023-04-20T17:43:55.159Z,5.77
2023-04-20T17:46:23.065Z,6.83
2023-04-20T17:48:49.814Z,6.37
2023-04-20T17:51:16.820Z,6.50
2023-04-20T17:53:43.572Z,6.60
2023-04-20T17:56:10.831Z,6.43
2023-04-20T17:58:37.655Z,6.10
2023-04-20T18:01:04.895Z,6.93
2023-04-20T18:03:31.825Z,5.67
2023-04-20T18:05:58.774Z,7.77
2023-04-20T18:08:25.794Z,6.77
2023-04-20T18:10:52.550Z,6.00
2023-04-20T18:13:19.256Z,6.87
2023-04-20T18:15:46.070Z,6.10
2023-04-20T18:18:12.892Z,6.47
2023-04-20T18:20:40.406Z,6.63
2023-04-20T18:23:07.499Z,7.27
2023-04-20T18:25:34.297Z,7.50
2023-04-20T18:28:01.354Z,7.53
2023-04-20T18:30:28.148Z,7.40
2023-04-20T18:32:54.973Z,8.20
2023-04-20T18:35:21.728Z,8.67
2023-04-20T18:37:48.393Z,7.80
2023-04-20T18:40:16.379Z,8.57
2023-04-20T18:42:43.843Z,8.30
2023-04-20T18:45:13.024Z,9.00
2023-04-20T18:47:39.956Z,8.03
2023-04-20T18:50:07.339Z,9.20
2023-04-20T18:52:34.541Z,8.17
2023-04-20T18:55:01.756Z,10.50
2023-04-20T18:57:29.074Z,8.93
2023-04-20T18:59:56.852Z,9.10
2023-04-20T19:02:24.049Z,8.90
2023-04-20T19:04:51.159Z,9.70
2023-04-20T19:07:18.411Z,8.40
2023-04-20T19:09:45.278Z,8.20
2023-04-20T19:12:12.124Z,8.43
2023-04-20T19:14:38.850Z,9.20
2023-04-20T19:17:07.384Z,8.80
2023-04-20T19:19:34.410Z,24.60
2023-04-20T19:22:01.716Z,9.00
2023-04-20T19:24:28.430Z,14.27
2023-04-20T19:26:55.199Z,9.53
2023-04-20T19:29:21.916Z,9.30
2023-04-20T19:31:48.727Z,8.93
2023-04-20T19:34:16.238Z,8.47
2023-04-20T19:36:43.109Z,8.67
2023-04-20T19:39:10.116Z,9.83
2023-04-20T19:41:37.837Z,8.27
2023-04-20T19:44:06.211Z,10.00
2023-04-20T19:46:33.909Z,10.07
2023-04-20T19:49:00.943Z,9.73
2023-04-20T19:51:27.819Z,9.57
2023-04-20T19:53:54.725Z,9.90
2023-04-20T19:56:21.510Z,10.70
2023-04-20T19:58:48.186Z,11.93
2023-04-20T20:01:15.080Z,10.33
2023-04-20T20:03:43.037Z,10.63
2023-04-20T20:06:10.151Z,11.77
2023-04-20T20:08:36.999Z,11.40
2023-04-20T20:11:04.240Z,11.27
2023-04-20T20:13:31.198Z,11.77
2023-04-20T20:15:58.968Z,12.90
2023-04-20T20:18:26.209Z,13.27
2023-04-20T20:20:53.036Z,12.57
2023-04-20T20:23:19.710Z,11.93
2023-04-20T20:25:46.482Z,13.30
2023-04-20T20:28:13.239Z,13.80
2023-04-20T20:30:44.988Z,12.87
2023-04-20T20:33:12.325Z,14.23
2023-04-20T20:35:39.774Z,13.27
2023-04-20T20:38:07.890Z,13.30
2023-04-20T20:40:35.688Z,14.47
2023-04-20T20:43:02.635Z,13.90
2023-04-20T20:45:30.374Z,14.30
2023-04-20T20:47:57.581Z,13.07
2023-04-20T20:50:27.882Z,11.87
2023-04-20T20:52:54.808Z,13.00
2023-04-20T20:55:21.587Z,14.13
2023-04-20T20:57:48.326Z,11.80
2023-04-20T21:00:18.984Z,13.47
2023-04-20T21:02:48.712Z,13.97
2023-04-20T21:05:15.588Z,13.07
2023-04-20T21:07:42.489Z,13.67
2023-04-20T21:10:11.532Z,12.13
2023-04-20T21:12:38.355Z,11.87
2023-04-20T21:15:05.799Z,12.83
2023-04-20T21:17:32.633Z,13.50
2023-04-20T21:19:59.313Z,12.77
2023-04-20T21:22:26.215Z,12.43
2023-04-20T21:24:52.872Z,12.60
2023-04-20T21:27:19.698Z,12.80
2023-04-20T21:29:46.477Z,14.00
2023-04-20T21:32:13.318Z,12.63
2023-04-20T21:34:40.075Z,14.10
2023-04-20T21:37:07.102Z,13.47
2023-04-20T21:39:33.927Z,11.10
2023-04-20T21:42:01.478Z,13.00
2023-04-20T21:44:28.153Z,12.70
2023-04-20T21:46:54.949Z,11.30
2023-04-20T21:49:21.780Z,11.37
2023-04-20T21:51:48.735Z,12.50
2023-04-20T21:54:15.962Z,11.97
2023-04-20T21:56:42.700Z,11.63
2023-04-20T21:59:09.400Z,13.00
2023-04-20T22:01:36.319Z,11.90
2023-04-20T22:04:04.562Z,13.67
2023-04-20T22:06:34.837Z,15.50
2023-04-20T22:09:01.829Z,13.23
2023-04-20T22:11:29.645Z,13.60
2023-04-20T22:13:57.280Z,12.57
2023-04-20T22:16:24.391Z,13.83
2023-04-20T22:18:51.231Z,12.47
2023-04-20T22:21:18.017Z,13.40
2023-04-20T22:23:44.724Z,16.70
2023-04-20T22:26:11.474Z,13.53
2023-04-20T22:28:38.141Z,11.13
2023-04-20T22:31:05.229Z,15.17
2023-04-20T22:33:31.997Z,16.30
2023-04-20T22:35:58.701Z,12.63
2023-04-20T22:38:28.035Z,13.70
2023-04-20T22:40:54.827Z,12.80
2023-04-20T22:43:21.617Z,13.40
2023-04-20T22:45:48.763Z,13.40
2023-04-20T22:48:15.626Z,13.97
2023-04-20T22:50:42.359Z,13.43
2023-04-20T22:53:09.073Z,12.87
2023-04-20T22:55:35.830Z,14.60
2023-04-20T22:58:02.582Z,12.60
2023-04-20T23:00:29.496Z,17.93
2023-04-20T23:02:57.862Z,14.80
2023-04-20T23:05:27.185Z,17.37
2023-04-20T23:07:55.004Z,15.47
2023-04-20T23:10:22.202Z,15.40
2023-04-20T23:12:49.630Z,14.90
2023-04-20T23:15:16.372Z,15.77
2023-04-20T23:17:43.259Z,18.70
2023-04-20T23:20:11.137Z,17.80
2023-04-20T23:22:37.815Z,17.27
2023-04-20T23:25:04.821Z,15.97
2023-04-20T23:27:31.705Z,16.60
2023-04-20T23:29:58.464Z,17.23
2023-04-20T23:32:25.935Z,17.50
2023-04-20T23:34:52.793Z,17.53
2023-04-20T23:37:19.542Z,16.27
2023-04-20T23:39:46.206Z,21.73
2023-04-20T23:42:12.976Z,18.03
2023-04-20T23:44:40.048Z,18.47
2023-04-20T23:47:06.821Z,16.97
2023-04-20T23:49:33.632Z,21.43
2023-04-20T23:52:00.384Z,20.40
2023-04-20T23:54:27.536Z,22.77
2023-04-20T23:56:55.456Z,19.33
2023-04-20T23:59:22.165Z,17.17
